Time;durP1;ratioP1;P1;durP2;ratioP2;P2;SDS_P1;SDS_P2;PMS_P1;PMS_P2;Temp;Humidity;BMP_temperature;BMP_pressure;BME280_temperature;BME280_humidity;BME280_pressure;Samples;Min_cycle;Max_cycle;Signal;HPM_P1;HPM_P2
2021/12/16 00:02:34;;;;;;;18.92;9.05;;;;;;;;;;5075795;28;20067;-71
2021/12/16 00:07:59;;;;;;;13.55;8.32;;;;;;;;;;5075691;28;20075;-72
2021/12/16 00:10:34;;;;;;;14.07;8.18;;;;;;;;;;5075690;28;20021;-71
2021/12/16 00:34:55;;;;;;;14.63;9.45;;;;;;;;;;5075091;28;20480;-71
2021/12/16 00:37:22;;;;;;;13.80;8.90;;;;;;;;;;5075197;28;20420;-71
2021/12/16 00:39:49;;;;;;;14.90;9.68;;;;;;;;;;5075045;28;20092;-72
2021/12/16 00:43:10;;;;;;;16.75;9.02;;;;;;;;;;5073635;28;20035;-72
2021/12/16 00:45:23;;;;;;;;;;;;;;;;;;5066987;28;20082;-71
2021/12/16 00:48:19;;;;;;;15.40;9.18;;;;;;;;;;5073616;28;19904;-71
2021/12/16 00:56:10;;;;;;;12.80;8.05;;;;;;;;;;5075010;28;20396;-73
2021/12/16 00:58:46;;;;;;;11.75;8.35;;;;;;;;;;5074705;28;20016;-71
2021/12/16 01:04:27;;;;;;;11.65;8.48;;;;;;;;;;5074592;28;20094;-71
2021/12/16 01:33:31;;;;;;;11.90;7.38;;;;;;;;;;5074492;28;20017;-72
2021/12/16 01:34:31;;;;;;;17.67;7.15;;;;;;;;;;5074302;28;20027;-72
2021/12/16 01:40:08;;;;;;;16.75;6.97;;;;;;;;;;5073910;28;20071;-72
2021/12/16 01:50:41;;;;;;;14.07;5.20;;;;;;;;;;5073813;28;20032;-71
2021/12/16 01:53:21;;;;;;;13.40;5.53;;;;;;;;;;5072109;28;20119;-71
2021/12/16 01:56:00;;;;;;;16.88;5.43;;;;;;;;;;5072338;28;20021;-72
2021/12/16 01:58:30;;;;;;;12.32;4.97;;;;;;;;;;5072119;28;20031;-70
2021/12/16 02:01:12;;;;;;;13.77;4.88;;;;;;;;;;5073562;28;20019;-71
2021/12/16 02:03:47;;;;;;;12.55;4.72;;;;;;;;;;5073561;28;20016;-70
2021/12/16 02:08:47;;;;;;;11.48;4.53;;;;;;;;;;5073434;28;20056;-70
2021/12/16 02:38:46;;;;;;;10.85;4.10;;;;;;;;;;5073034;28;20425;-72
2021/12/16 02:41:14;;;;;;;10.13;3.83;;;;;;;;;;5071686;28;20021;-70
2021/12/16 02:49:12;;;;;;;9.20;3.92;;;;;;;;;;5071908;28;20397;-72
2021/12/16 02:51:39;;;;;;;8.57;3.92;;;;;;;;;;5071318;28;20051;-71
2021/12/16 02:54:07;;;;;;;12.10;4.28;;;;;;;;;;5071301;28;20115;-71
2021/12/16 02:56:35;;;;;;;11.88;4.05;;;;;;;;;;5072813;28;20044;-72
2021/12/16 02:59:02;;;;;;;10.80;4.30;;;;;;;;;;5072773;28;20031;-71
2021/12/16 03:01:33;;;;;;;11.57;4.80;;;;;;;;;;5072813;28;20032;-72
2021/12/16 03:04:05;;;;;;;8.52;3.72;;;;;;;;;;5071264;28;20031;-72
2021/12/16 03:06:33;;;;;;;11.25;4.25;;;;;;;;;;5071370;28;20028;-72
2021/12/16 03:09:01;;;;;;;12.93;4.45;;;;;;;;;;5072657;28;20021;-71
2021/12/16 03:12:27;;;;;;;10.00;3.58;;;;;;;;;;5072638;28;20443;-71
2021/12/16 03:14:27;;;;;;;10.07;3.63;;;;;;;;;;5071989;28;20032;-71
2021/12/16 03:17:04;;;;;;;12.55;3.95;;;;;;;;;;5071226;28;20489;-71
2021/12/16 03:25:26;;;;;;;9.02;3.38;;;;;;;;;;5072476;28;20112;-72
2021/12/16 03:38:22;;;;;;;12.60;3.95;;;;;;;;;;5072521;28;19966;-72
2021/12/16 03:40:49;;;;;;;12.65;4.28;;;;;;;;;;5072314;28;20096;-72
2021/12/16 03:43:19;;;;;;;15.18;4.18;;;;;;;;;;5072416;28;20492;-71
2021/12/16 03:48:43;;;;;;;12.30;4.07;;;;;;;;;;5072445;28;20105;-71
2021/12/16 03:51:13;;;;;;;14.45;4.18;;;;;;;;;;5072210;28;20025;-71
2021/12/16 03:53:42;;;;;;;12.32;4.13;;;;;;;;;;5070937;28;20051;-73
2021/12/16 03:56:10;;;;;;;16.80;3.65;;;;;;;;;;5070705;28;20021;-72
2021/12/16 03:58:38;;;;;;;12.20;3.63;;;;;;;;;;5070931;28;20480;-71
2021/12/16 04:01:12;;;;;;;14.23;4.70;;;;;;;;;;5073040;28;20248;-70
2021/12/16 04:03:39;;;;;;;13.40;4.28;;;;;;;;;;5075902;28;20020;-71
2021/12/16 04:06:07;;;;;;;15.07;4.00;;;;;;;;;;5074304;28;20017;-71
2021/12/16 04:08:34;;;;;;;12.30;3.67;;;;;;;;;;5074270;28;20023;-71
2021/12/16 04:11:07;;;;;;;12.15;3.95;;;;;;;;;;5075592;28;20013;-71
2021/12/16 04:13:41;;;;;;;12.80;3.45;;;;;;;;;;5074251;28;20511;-71
2021/12/16 04:16:09;;;;;;;11.00;4.13;;;;;;;;;;5074043;28;20438;-71
2021/12/16 04:18:37;;;;;;;11.00;3.70;;;;;;;;;;5074013;28;20110;-71
2021/12/16 04:21:04;;;;;;;13.23;4.20;;;;;;;;;;5075202;28;20174;-73
2021/12/16 04:23:31;;;;;;;11.32;3.55;;;;;;;;;;5073974;28;20039;-72
2021/12/16 04:25:58;;;;;;;13.00;3.88;;;;;;;;;;5073977;28;20028;-70
2021/12/16 04:28:27;;;;;;;14.65;3.30;;;;;;;;;;5073881;28;20185;-72
2021/12/16 04:30:54;;;;;;;14.15;3.20;;;;;;;;;;5073820;28;20031;-72
2021/12/16 04:33:22;;;;;;;12.38;3.15;;;;;;;;;;5075218;28;20472;-72
2021/12/16 04:35:49;;;;;;;13.90;3.65;;;;;;;;;;5075089;28;20370;-73
2021/12/16 04:38:17;;;;;;;14.20;3.30;;;;;;;;;;5075163;28;20101;-72
2021/12/16 04:40:47;;;;;;;12.68;3.35;;;;;;;;;;5073631;28;20028;-72
2021/12/16 04:43:21;;;;;;;10.18;2.55;;;;;;;;;;5073666;28;20037;-71
2021/12/16 04:45:49;;;;;;;16.10;3.63;;;;;;;;;;5074930;28;20021;-71
2021/12/16 04:48:16;;;;;;;16.23;3.63;;;;;;;;;;5074845;28;20089;-71
2021/12/16 04:50:43;;;;;;;12.93;3.00;;;;;;;;;;5074972;28;20517;-71
2021/12/16 04:53:10;;;;;;;10.02;2.88;;;;;;;;;;5074727;28;20473;-71
2021/12/16 04:55:38;;;;;;;11.70;3.33;;;;;;;;;;5074753;28;20025;-72
2021/12/16 04:58:05;;;;;;;12.32;2.85;;;;;;;;;;5074705;28;20123;-72
2021/12/16 05:00:32;;;;;;;12.60;2.85;;;;;;;;;;5074674;28;20477;-71
2021/12/16 05:02:59;;;;;;;19.58;3.65;;;;;;;;;;5074551;28;20032;-71
2021/12/16 05:05:27;;;;;;;11.25;2.35;;;;;;;;;;5074630;28;20540;-73
2021/12/16 05:07:54;;;;;;;15.20;3.03;;;;;;;;;;5074486;28;20078;-70
2021/12/16 05:10:21;;;;;;;15.05;3.88;;;;;;;;;;5073141;28;20112;-72
2021/12/16 05:12:51;;;;;;;12.13;3.03;;;;;;;;;;5071993;28;20024;-71
2021/12/16 05:15:20;;;;;;;11.93;2.67;;;;;;;;;;5074394;28;20495;-73
2021/12/16 05:17:51;;;;;;;10.25;2.67;;;;;;;;;;5074397;28;20431;-69
2021/12/16 05:20:23;;;;;;;10.52;2.85;;;;;;;;;;5074082;28;20024;-71
2021/12/16 05:26:21;;;;;;;16.83;3.33;;;;;;;;;;5074485;28;20040;-72
2021/12/16 05:28:27;;;;;;;11.00;2.92;;;;;;;;;;5065661;28;20119;-73
2021/12/16 05:30:54;;;;;;;15.30;3.17;;;;;;;;;;5074093;28;20027;-72
2021/12/16 05:33:23;;;;;;;11.60;2.58;;;;;;;;;;5074023;28;20028;-72
2021/12/16 05:35:51;;;;;;;11.65;3.03;;;;;;;;;;5074031;28;20045;-70
2021/12/16 05:38:20;;;;;;;12.15;2.65;;;;;;;;;;5072379;28;20020;-73
2021/12/16 05:40:47;;;;;;;13.98;2.55;;;;;;;;;;5073847;28;20440;-71
2021/12/16 05:43:16;;;;;;;14.88;3.15;;;;;;;;;;5073902;28;20085;-70
2021/12/16 05:45:44;;;;;;;10.95;2.50;;;;;;;;;;5072494;28;20393;-71
2021/12/16 05:48:12;;;;;;;13.02;2.85;;;;;;;;;;5073717;28;20035;-72
2021/12/16 05:50:42;;;;;;;11.30;2.45;;;;;;;;;;5073722;28;20562;-71
2021/12/16 05:53:09;;;;;;;10.13;2.63;;;;;;;;;;5073506;28;20021;-72
2021/12/16 05:55:36;;;;;;;12.20;2.58;;;;;;;;;;5073677;28;20027;-72
2021/12/16 05:58:06;;;;;;;11.00;3.50;;;;;;;;;;5073617;28;20024;-71
2021/12/16 06:00:35;;;;;;;10.93;2.05;;;;;;;;;;5073600;28;20477;-71
2021/12/16 06:03:03;;;;;;;9.65;2.58;;;;;;;;;;5073416;28;20024;-72
2021/12/16 06:05:30;;;;;;;10.05;2.88;;;;;;;;;;5072008;28;20032;-70
2021/12/16 06:07:57;;;;;;;12.50;2.88;;;;;;;;;;5073491;28;20046;-72
2021/12/16 06:13:13;;;;;;;8.23;2.10;;;;;;;;;;5073310;28;20035;-72
2021/12/16 06:29:22;;;;;;;12.75;2.92;;;;;;;;;;5072976;28;20370;-72
2021/12/16 06:31:49;;;;;;;9.43;2.30;;;;;;;;;;5073044;28;20029;-71
2021/12/16 06:34:17;;;;;;;11.43;2.83;;;;;;;;;;5071596;28;20025;-72
2021/12/16 06:36:44;;;;;;;9.98;3.00;;;;;;;;;;5071700;28;20017;-71
2021/12/16 06:39:11;;;;;;;12.70;2.40;;;;;;;;;;5072980;28;20111;-71
2021/12/16 06:41:39;;;;;;;8.35;2.40;;;;;;;;;;5071608;28;20565;-71
2021/12/16 06:44:14;;;;;;;9.15;2.58;;;;;;;;;;5071446;28;20090;-71
2021/12/16 06:46:43;;;;;;;14.63;2.78;;;;;;;;;;5072954;28;20100;-72
2021/12/16 06:49:13;;;;;;;10.13;2.85;;;;;;;;;;5072875;28;20389;-71
2021/12/16 06:51:50;;;;;;;8.75;2.28;;;;;;;;;;5072930;28;20024;-72
2021/12/16 06:54:27;;;;;;;13.55;2.97;;;;;;;;;;5071461;28;20032;-73
2021/12/16 06:59:32;;;;;;;9.70;2.50;;;;;;;;;;5072815;28;20024;-72
2021/12/16 07:04:30;;;;;;;8.38;2.10;;;;;;;;;;5072714;28;20036;-73
2021/12/16 07:06:57;;;;;;;10.32;2.90;;;;;;;;;;5072746;28;20024;-72
2021/12/16 07:09:24;;;;;;;8.57;2.10;;;;;;;;;;5071232;28;20029;-72
2021/12/16 07:11:53;;;;;;;7.95;2.10;;;;;;;;;;5071236;28;20157;-72
2021/12/16 07:14:26;;;;;;;8.82;2.33;;;;;;;;;;5072636;28;20096;-73
2021/12/16 07:16:57;;;;;;;13.40;2.60;;;;;;;;;;5072716;28;20090;-71
2021/12/16 07:19:24;;;;;;;10.60;2.70;;;;;;;;;;5071210;28;20020;-71
2021/12/16 07:21:51;;;;;;;11.68;2.45;;;;;;;;;;5072367;28;20040;-70
2021/12/16 07:24:20;;;;;;;9.68;2.58;;;;;;;;;;5072547;28;20473;-72
2021/12/16 07:26:48;;;;;;;9.60;2.28;;;;;;;;;;5070997;28;20107;-73
2021/12/16 07:29:15;;;;;;;8.80;2.05;;;;;;;;;;5071085;28;20029;-72
2021/12/16 07:31:42;;;;;;;15.32;3.63;;;;;;;;;;5072246;28;20031;-72
2021/12/16 07:34:11;;;;;;;9.48;2.85;;;;;;;;;;5072338;28;20108;-71
2021/12/16 07:36:40;;;;;;;10.75;2.75;;;;;;;;;;5074238;28;20028;-71
2021/12/16 07:39:09;;;;;;;7.60;2.42;;;;;;;;;;5074737;28;20480;-71
2021/12/16 07:41:38;;;;;;;8.90;2.38;;;;;;;;;;5074633;28;20047;-71
2021/12/16 07:44:10;;;;;;;8.55;2.20;;;;;;;;;;5074836;28;20594;-70
2021/12/16 07:46:42;;;;;;;8.93;2.30;;;;;;;;;;5074633;28;20025;-71
2021/12/16 07:49:10;;;;;;;9.38;2.10;;;;;;;;;;5076020;28;20118;-71
2021/12/16 07:51:38;;;;;;;8.82;2.38;;;;;;;;;;5075808;28;20564;-71
2021/12/16 07:54:06;;;;;;;9.38;2.20;;;;;;;;;;5076077;28;20017;-71
2021/12/16 07:56:33;;;;;;;8.52;2.30;;;;;;;;;;5074307;28;20024;-71
2021/12/16 07:59:00;;;;;;;8.48;2.55;;;;;;;;;;5074588;28;20028;-71
2021/12/16 08:01:27;;;;;;;9.15;2.60;;;;;;;;;;5074547;28;20017;-71
2021/12/16 08:03:55;;;;;;;9.85;2.53;;;;;;;;;;5075746;28;20020;-71
2021/12/16 08:06:24;;;;;;;9.65;2.90;;;;;;;;;;5075648;28;20090;-72
2021/12/16 08:08:51;;;;;;;10.27;3.05;;;;;;;;;;5074297;28;20024;-72
2021/12/16 08:11:18;;;;;;;12.02;3.35;;;;;;;;;;5075629;28;20048;-72
2021/12/16 08:13:46;;;;;;;8.55;3.65;;;;;;;;;;5074183;28;20396;-72
2021/12/16 08:16:13;;;;;;;7.88;3.38;;;;;;;;;;5075449;28;20043;-71
2021/12/16 08:18:40;;;;;;;11.02;2.28;;;;;;;;;;5075445;28;20020;-71
2021/12/16 08:21:07;;;;;;;9.10;3.17;;;;;;;;;;5073889;28;20045;-71
2021/12/16 08:23:35;;;;;;;9.98;3.75;;;;;;;;;;5074313;28;20534;-71
2021/12/16 08:26:02;;;;;;;11.88;3.42;;;;;;;;;;5075389;28;20024;-70
2021/12/16 08:28:30;;;;;;;12.05;3.00;;;;;;;;;;5075285;28;20108;-71
2021/12/16 08:30:57;;;;;;;7.43;2.30;;;;;;;;;;5075294;28;20056;-71
2021/12/16 08:33:24;;;;;;;6.25;2.10;;;;;;;;;;5075094;28;20118;-72
2021/12/16 08:35:52;;;;;;;9.13;2.30;;;;;;;;;;5073708;28;20024;-72
2021/12/16 08:38:21;;;;;;;7.00;2.08;;;;;;;;;;5075359;28;20020;-72
2021/12/16 08:40:50;;;;;;;10.90;2.60;;;;;;;;;;5073693;28;20052;-71
2021/12/16 08:43:17;;;;;;;8.80;2.33;;;;;;;;;;5074899;28;20016;-71
2021/12/16 08:45:45;;;;;;;6.20;2.20;;;;;;;;;;5074859;28;20367;-75
2021/12/16 08:48:12;;;;;;;7.10;2.22;;;;;;;;;;5074930;28;20425;-71
2021/12/16 08:50:43;;;;;;;8.23;2.15;;;;;;;;;;5073518;28;20063;-72
2021/12/16 08:53:09;;;;;;;;;;;;;;;;;;5073705;28;20024;-72
2021/12/16 08:55:37;;;;;;;8.45;3.00;;;;;;;;;;5074803;28;19920;-72
2021/12/16 08:58:05;;;;;;;9.25;2.72;;;;;;;;;;5073223;28;20020;-73
2021/12/16 09:00:35;;;;;;;14.10;3.40;;;;;;;;;;5073225;28;20472;-72
2021/12/16 09:03:03;;;;;;;7.43;2.58;;;;;;;;;;5073118;28;20035;-72
2021/12/16 09:05:30;;;;;;;9.38;2.33;;;;;;;;;;5074649;28;20435;-73
2021/12/16 09:07:58;;;;;;;12.95;2.70;;;;;;;;;;5072932;28;20476;-71
2021/12/16 09:10:28;;;;;;;8.85;2.97;;;;;;;;;;5073072;28;20035;-72
2021/12/16 09:13:05;;;;;;;7.80;2.05;;;;;;;;;;5074506;28;20024;-74
2021/12/16 09:15:37;;;;;;;10.77;2.83;;;;;;;;;;5074396;28;20021;-72
2021/12/16 09:18:05;;;;;;;10.32;2.67;;;;;;;;;;5072944;28;20020;-71
2021/12/16 09:20:33;;;;;;;9.48;2.95;;;;;;;;;;5072659;28;20032;-71
2021/12/16 09:23:00;;;;;;;10.18;2.75;;;;;;;;;;5074036;28;20021;-70
2021/12/16 09:25:28;;;;;;;10.40;3.45;;;;;;;;;;5072605;28;20047;-71
2021/12/16 09:27:55;;;;;;;7.38;2.63;;;;;;;;;;5074176;28;20028;-72
2021/12/16 09:30:24;;;;;;;5.75;2.40;;;;;;;;;;5072580;28;20452;-72
2021/12/16 09:32:52;;;;;;;8.38;2.15;;;;;;;;;;5073957;28;20082;-72
2021/12/16 09:35:20;;;;;;;6.88;2.22;;;;;;;;;;5072667;28;20048;-72
2021/12/16 09:37:48;;;;;;;9.98;2.33;;;;;;;;;;5072793;28;20107;-73
2021/12/16 09:40:19;;;;;;;6.75;2.60;;;;;;;;;;5073961;28;20051;-73
2021/12/16 09:42:46;;;;;;;7.88;2.17;;;;;;;;;;5072585;28;20032;-73
2021/12/16 09:45:14;;;;;;;7.82;2.40;;;;;;;;;;5073962;28;20089;-72
2021/12/16 09:47:43;;;;;;;7.35;2.03;;;;;;;;;;5073813;28;20016;-72
2021/12/16 09:50:11;;;;;;;5.95;1.80;;;;;;;;;;5073896;28;20150;-73
2021/12/16 09:52:39;;;;;;;6.20;2.45;;;;;;;;;;5073827;28;20021;-73
2021/12/16 09:55:07;;;;;;;8.80;2.42;;;;;;;;;;5073710;28;20025;-72
2021/12/16 09:57:34;;;;;;;7.75;2.25;;;;;;;;;;5073219;28;20032;-72
2021/12/16 10:00:01;;;;;;;8.40;2.58;;;;;;;;;;5072227;28;20021;-73
2021/12/16 10:02:30;;;;;;;7.75;2.10;;;;;;;;;;5073606;28;20027;-73
2021/12/16 10:04:57;;;;;;;10.50;2.60;;;;;;;;;;5073651;28;20095;-72
2021/12/16 10:07:27;;;;;;;7.18;1.95;;;;;;;;;;5071827;28;20052;-71
2021/12/16 10:09:56;;;;;;;8.70;2.42;;;;;;;;;;5071962;28;20031;-71
2021/12/16 10:12:28;;;;;;;6.38;2.38;;;;;;;;;;5073350;28;20473;-71
2021/12/16 10:17:24;;;;;;;5.75;2.00;;;;;;;;;;5073250;28;20017;-71
2021/12/16 10:19:52;;;;;;;7.20;1.88;;;;;;;;;;5071663;28;20016;-71
2021/12/16 10:22:22;;;;;;;8.98;2.35;;;;;;;;;;5071881;28;20035;-72
2021/12/16 10:24:51;;;;;;;7.03;2.25;;;;;;;;;;5071798;28;20020;-72
2021/12/16 10:27:20;;;;;;;8.55;2.45;;;;;;;;;;5073035;28;20021;-72
2021/12/16 10:29:53;;;;;;;6.97;1.80;;;;;;;;;;5073028;28;20024;-71
2021/12/16 10:32:37;;;;;;;8.63;2.10;;;;;;;;;;5071859;28;20029;-72
2021/12/16 10:35:08;;;;;;;9.82;2.22;;;;;;;;;;5071678;28;20020;-72
2021/12/16 10:37:36;;;;;;;5.75;1.85;;;;;;;;;;5073122;28;20532;-72
2021/12/16 10:40:22;;;;;;;10.27;2.20;;;;;;;;;;5071504;28;20374;-71
2021/12/16 10:42:50;;;;;;;6.80;2.15;;;;;;;;;;5071594;28;20020;-72
2021/12/16 10:45:38;;;;;;;10.35;1.90;;;;;;;;;;5073060;28;20221;-72
2021/12/16 10:48:14;;;;;;;5.57;1.73;;;;;;;;;;5072990;28;20054;-72
2021/12/16 10:50:56;;;;;;;7.97;1.83;;;;;;;;;;5071435;28;20028;-72
2021/12/16 10:53:41;;;;;;;7.53;1.73;;;;;;;;;;5071387;28;20458;-71
2021/12/16 10:56:08;;;;;;;10.25;2.50;;;;;;;;;;5072786;28;20020;-71
2021/12/16 10:58:50;;;;;;;5.53;1.77;;;;;;;;;;5071345;28;20029;-71
2021/12/16 11:01:36;;;;;;;5.85;1.80;;;;;;;;;;5071343;28;20103;-72
2021/12/16 11:04:07;;;;;;;9.10;1.98;;;;;;;;;;5072924;28;20416;-72
2021/12/16 11:06:40;;;;;;;6.65;1.98;;;;;;;;;;5071448;28;20024;-72
2021/12/16 11:09:42;;;;;;;9.00;1.90;;;;;;;;;;5072656;28;20025;-72
2021/12/16 11:12:11;;;;;;;8.05;2.00;;;;;;;;;;4998349;28;20057;-72
2021/12/16 11:14:40;;;;;;;7.10;2.50;;;;;;;;;;5061417;28;20141;-72
2021/12/16 11:17:08;;;;;;;7.68;1.92;;;;;;;;;;5075252;28;20044;-73
2021/12/16 11:19:39;;;;;;;9.27;2.15;;;;;;;;;;5075275;28;20177;-72
2021/12/16 11:22:07;;;;;;;12.75;2.38;;;;;;;;;;5073914;28;20048;-72
2021/12/16 11:24:34;;;;;;;9.70;2.08;;;;;;;;;;5073970;28;20048;-72
2021/12/16 11:27:19;;;;;;;9.68;2.33;;;;;;;;;;5075393;28;20032;-71
2021/12/16 11:29:47;;;;;;;7.80;2.20;;;;;;;;;;5075429;28;20029;-72
2021/12/16 11:32:32;;;;;;;8.95;1.60;;;;;;;;;;5073755;28;20062;-73
2021/12/16 11:34:59;;;;;;;9.70;2.50;;;;;;;;;;5075401;28;20024;-71
2021/12/16 11:37:28;;;;;;;7.35;1.90;;;;;;;;;;5073805;28;20028;-72
2021/12/16 11:39:55;;;;;;;8.57;1.90;;;;;;;;;;5073755;28;20393;-71
2021/12/16 11:42:31;;;;;;;9.77;2.38;;;;;;;;;;5073605;28;20024;-71
2021/12/16 11:44:59;;;;;;;7.25;1.83;;;;;;;;;;5073475;28;20047;-71
2021/12/16 11:47:26;;;;;;;10.82;2.53;;;;;;;;;;5074810;28;20017;-72
2021/12/16 11:50:03;;;;;;;6.22;1.70;;;;;;;;;;5073323;28;20210;-72
2021/12/16 11:52:32;;;;;;;8.00;2.05;;;;;;;;;;5074663;28;20028;-71
2021/12/16 11:55:07;;;;;;;6.60;2.03;;;;;;;;;;5073322;28;20021;-71
2021/12/16 11:57:39;;;;;;;9.30;2.33;;;;;;;;;;5073290;28;20048;-72
2021/12/16 12:00:15;;;;;;;8.65;2.05;;;;;;;;;;5074643;28;20031;-72
2021/12/16 12:02:53;;;;;;;9.98;2.65;;;;;;;;;;5073208;28;20033;-72
2021/12/16 12:05:20;;;;;;;9.13;2.33;;;;;;;;;;5073108;28;20032;-71
2021/12/16 12:08:07;;;;;;;8.57;1.90;;;;;;;;;;5073095;28;20032;-71
2021/12/16 12:10:46;;;;;;;10.27;2.25;;;;;;;;;;5072974;28;20059;-71
2021/12/16 12:13:15;;;;;;;12.25;2.67;;;;;;;;;;5072984;28;20062;-72
2021/12/16 12:16:03;;;;;;;8.88;2.10;;;;;;;;;;5074386;28;20093;-72
2021/12/16 12:18:35;;;;;;;7.03;1.95;;;;;;;;;;5074426;28;20338;-72
2021/12/16 12:21:35;;;;;;;12.80;3.03;;;;;;;;;;4960478;28;3210642;-72
2021/12/16 12:24:11;;;;;;;10.80;2.33;;;;;;;;;;5041948;28;20047;-72
2021/12/16 12:26:49;;;;;;;7.95;2.05;;;;;;;;;;5075911;28;20469;-71
2021/12/16 12:29:34;;;;;;;6.03;1.88;;;;;;;;;;5075320;28;20027;-72
2021/12/16 12:32:04;;;;;;;9.27;2.10;;;;;;;;;;5075241;28;20029;-72
2021/12/16 12:34:32;;;;;;;8.30;1.65;;;;;;;;;;5073829;28;20027;-72
2021/12/16 12:37:01;;;;;;;8.05;2.30;;;;;;;;;;5075237;28;20377;-72
2021/12/16 12:39:31;;;;;;;11.63;2.42;;;;;;;;;;5075121;28;20380;-72
2021/12/16 12:41:58;;;;;;;11.57;2.42;;;;;;;;;;5075043;28;20550;-72
2021/12/16 12:44:26;;;;;;;10.75;2.35;;;;;;;;;;5073674;28;20032;-73
2021/12/16 12:46:53;;;;;;;12.77;2.85;;;;;;;;;;5073624;28;20400;-73
2021/12/16 12:49:25;;;;;;;13.25;2.17;;;;;;;;;;5074871;28;20558;-72
2021/12/16 12:51:53;;;;;;;9.65;2.10;;;;;;;;;;5073454;28;20024;-72
2021/12/16 12:54:31;;;;;;;13.07;3.25;;;;;;;;;;5074854;28;20047;-72
2021/12/16 12:57:17;;;;;;;13.60;3.17;;;;;;;;;;5074831;28;20020;-73
2021/12/16 12:59:45;;;;;;;9.07;2.58;;;;;;;;;;5074750;28;20017;-72
2021/12/16 13:02:19;;;;;;;12.55;2.67;;;;;;;;;;5073233;28;20109;-72
2021/12/16 13:04:52;;;;;;;8.85;2.20;;;;;;;;;;5073287;28;20113;-72
2021/12/16 13:07:19;;;;;;;13.20;3.00;;;;;;;;;;5073166;28;20117;-73
2021/12/16 13:09:49;;;;;;;11.95;2.38;;;;;;;;;;5073148;28;20024;-72
2021/12/16 13:12:30;;;;;;;10.15;2.03;;;;;;;;;;5072975;28;20169;-73
2021/12/16 13:15:06;;;;;;;;;;;;;;;;;;5074999;28;20032;-72
2021/12/16 13:23:29;;;;;;;11.63;2.70;;;;;;;;;;5074586;28;20037;-73
2021/12/16 13:26:34;;;;;;;9.77;2.83;;;;;;;;;;5074249;28;20033;-72
2021/12/16 13:29:05;;;;;;;9.88;2.53;;;;;;;;;;5073511;28;20028;-72
2021/12/16 13:31:54;;;;;;;10.23;2.25;;;;;;;;;;5072679;28;20166;-72
2021/12/16 13:34:49;;;;;;;11.15;2.33;;;;;;;;;;5072016;28;20477;-73
2021/12/16 13:37:23;;;;;;;9.82;2.30;;;;;;;;;;5074107;28;20020;-72
2021/12/16 13:39:55;;;;;;;15.80;3.72;;;;;;;;;;5072570;28;20069;-72
2021/12/16 13:42:23;;;;;;;11.55;2.63;;;;;;;;;;5072421;28;20032;-73
2021/12/16 13:44:53;;;;;;;12.63;2.53;;;;;;;;;;5073839;28;20058;-73
2021/12/16 13:47:35;;;;;;;13.95;2.90;;;;;;;;;;5073801;28;20024;-73
2021/12/16 14:04:41;;;;;;;11.18;2.15;;;;;;;;;;5073658;28;20025;-71
2021/12/16 14:07:39;;;;;;;13.60;3.28;;;;;;;;;;5072092;28;20024;-71
2021/12/16 14:10:18;;;;;;;10.23;2.67;;;;;;;;;;5073115;28;20103;-71
2021/12/16 14:16:12;;;;;;;10.35;2.35;;;;;;;;;;5073402;28;20019;-71
2021/12/16 14:25:03;;;;;;;8.90;1.90;;;;;;;;;;5073233;28;20051;-72
2021/12/16 14:38:41;;;;;;;11.07;3.08;;;;;;;;;;5073043;28;20035;-72
2021/12/16 14:41:39;;;;;;;6.97;2.80;;;;;;;;;;5072879;28;20036;-72
2021/12/16 14:46:48;;;;;;;14.38;2.80;;;;;;;;;;5073004;28;20029;-72
2021/12/16 14:49:16;;;;;;;11.85;3.05;;;;;;;;;;5071592;28;20052;-73
2021/12/16 14:51:43;;;;;;;16.48;2.70;;;;;;;;;;5071455;28;20560;-72
2021/12/16 14:54:10;;;;;;;13.48;3.13;;;;;;;;;;5071468;28;20029;-72
2021/12/16 14:56:38;;;;;;;10.60;2.38;;;;;;;;;;5071436;28;20025;-73
2021/12/16 14:59:07;;;;;;;11.20;2.33;;;;;;;;;;5072798;28;20020;-72
2021/12/16 15:01:36;;;;;;;11.35;2.50;;;;;;;;;;5071492;28;20021;-72
2021/12/16 15:04:04;;;;;;;12.73;2.72;;;;;;;;;;5072794;28;20077;-73
2021/12/16 15:06:40;;;;;;;12.68;2.60;;;;;;;;;;5071446;28;20021;-72
2021/12/16 15:31:40;;;;;;;11.05;3.35;;;;;;;;;;5073010;28;20027;-72
2021/12/16 15:33:38;;;;;;;12.13;2.60;;;;;;;;;;5072443;28;20036;-72
2021/12/16 15:38:06;;;;;;;15.10;3.03;;;;;;;;;;5072712;28;20144;-73
2021/12/16 15:43:02;;;;;;;14.63;3.47;;;;;;;;;;5072415;28;20077;-72
2021/12/16 15:45:37;;;;;;;12.07;2.70;;;;;;;;;;5070934;28;20473;-73
2021/12/16 15:48:05;;;;;;;14.05;3.00;;;;;;;;;;5072332;28;20048;-72
2021/12/16 15:50:37;;;;;;;13.52;3.10;;;;;;;;;;5072433;28;20078;-72
2021/12/16 15:53:06;;;;;;;13.40;2.97;;;;;;;;;;5070883;28;20036;-72
2021/12/16 15:55:59;;;;;;;11.20;2.90;;;;;;;;;;5072323;28;20039;-72
2021/12/16 15:58:35;;;;;;;19.02;3.92;;;;;;;;;;5069562;28;20067;-73
2021/12/16 16:01:05;;;;;;;12.52;2.67;;;;;;;;;;5074597;28;20021;-71
2021/12/16 16:03:33;;;;;;;10.27;2.47;;;;;;;;;;5075975;28;20476;-72
2021/12/16 16:06:03;;;;;;;14.30;2.80;;;;;;;;;;5075847;28;20031;-71
2021/12/16 16:08:31;;;;;;;12.55;2.28;;;;;;;;;;5075824;28;20031;-72
2021/12/16 16:11:04;;;;;;;11.95;2.63;;;;;;;;;;5074294;28;20103;-71
2021/12/16 16:13:36;;;;;;;11.65;3.35;;;;;;;;;;5074311;28;20440;-72
2021/12/16 16:16:06;;;;;;;14.05;2.95;;;;;;;;;;5074326;28;20074;-72
2021/12/16 16:18:39;;;;;;;12.63;2.75;;;;;;;;;;5074271;28;20055;-72
2021/12/16 16:21:14;;;;;;;15.77;2.33;;;;;;;;;;5075471;28;20061;-71
2021/12/16 16:23:44;;;;;;;18.10;2.88;;;;;;;;;;5074492;28;20531;-72
2021/12/16 16:26:13;;;;;;;15.20;3.00;;;;;;;;;;5075757;28;20051;-71
2021/12/16 16:28:41;;;;;;;12.40;2.53;;;;;;;;;;5075402;28;20481;-71
2021/12/16 16:31:10;;;;;;;13.80;3.25;;;;;;;;;;5075331;28;20112;-71
2021/12/16 16:33:37;;;;;;;10.68;2.40;;;;;;;;;;5073939;28;20027;-70
2021/12/16 16:36:11;;;;;;;11.35;2.15;;;;;;;;;;5075389;28;20016;-71
2021/12/16 16:38:41;;;;;;;14.23;2.60;;;;;;;;;;5073898;28;20028;-71
2021/12/16 16:41:12;;;;;;;10.85;2.90;;;;;;;;;;5073813;28;20028;-71
2021/12/16 16:43:44;;;;;;;14.90;3.30;;;;;;;;;;5075173;28;20029;-71
2021/12/16 16:46:17;;;;;;;13.23;2.42;;;;;;;;;;5075104;28;20107;-71
2021/12/16 16:49:03;;;;;;;12.68;3.00;;;;;;;;;;5073685;28;20020;-71
2021/12/16 16:51:33;;;;;;;15.40;3.30;;;;;;;;;;5075098;28;20486;-71
2021/12/16 16:54:05;;;;;;;14.75;3.60;;;;;;;;;;5073647;28;20381;-72
2021/12/16 16:56:35;;;;;;;13.95;2.35;;;;;;;;;;5075024;28;20023;-72
2021/12/16 16:59:07;;;;;;;10.30;2.77;;;;;;;;;;5073552;28;20067;-71
2021/12/16 17:01:34;;;;;;;14.15;2.70;;;;;;;;;;5074864;28;20028;-71
2021/12/16 17:04:02;;;;;;;13.77;3.20;;;;;;;;;;5073377;28;20024;-71
2021/12/16 17:06:30;;;;;;;15.63;3.25;;;;;;;;;;5073375;28;20515;-71
2021/12/16 17:08:58;;;;;;;12.75;2.53;;;;;;;;;;5073488;28;20020;-72
2021/12/16 17:11:26;;;;;;;14.15;3.25;;;;;;;;;;5073281;28;20450;-71
2021/12/16 17:14:12;;;;;;;9.43;2.33;;;;;;;;;;5074679;28;20497;-71
2021/12/16 17:17:13;;;;;;;14.13;2.38;;;;;;;;;;5073134;28;20016;-72
2021/12/16 17:19:42;;;;;;;10.20;2.55;;;;;;;;;;5074406;28;20473;-71
2021/12/16 17:22:18;;;;;;;13.20;3.33;;;;;;;;;;5073050;28;20055;-71
2021/12/16 17:24:47;;;;;;;11.32;2.65;;;;;;;;;;5072865;28;20020;-71
2021/12/16 17:27:15;;;;;;;12.05;2.75;;;;;;;;;;5074277;28;20025;-71
2021/12/16 17:29:47;;;;;;;10.02;2.78;;;;;;;;;;5072800;28;20024;-72
2021/12/16 17:32:16;;;;;;;11.50;3.35;;;;;;;;;;5074120;28;20017;-72
2021/12/16 17:34:45;;;;;;;13.10;2.90;;;;;;;;;;5072779;28;20017;-73
2021/12/16 17:37:19;;;;;;;10.05;2.95;;;;;;;;;;5074090;28;20040;-72
2021/12/16 17:39:49;;;;;;;12.55;3.10;;;;;;;;;;5074037;28;20074;-72
2021/12/16 17:42:18;;;;;;;10.10;2.73;;;;;;;;;;5073989;28;20024;-72
2021/12/16 17:44:50;;;;;;;13.13;3.20;;;;;;;;;;5072534;28;20538;-73
2021/12/16 17:47:19;;;;;;;13.50;3.50;;;;;;;;;;5072515;28;20446;-72
2021/12/16 17:49:47;;;;;;;11.32;3.10;;;;;;;;;;5073834;28;20024;-72
2021/12/16 17:52:19;;;;;;;14.60;3.38;;;;;;;;;;5073706;28;20020;-72
2021/12/16 17:54:48;;;;;;;10.93;2.75;;;;;;;;;;5072369;28;20111;-72
2021/12/16 17:57:26;;;;;;;12.85;3.20;;;;;;;;;;5072261;28;20117;-72
2021/12/16 17:59:53;;;;;;;10.38;2.75;;;;;;;;;;5073552;28;20017;-72
2021/12/16 18:02:22;;;;;;;16.23;2.95;;;;;;;;;;5072217;28;20112;-72
2021/12/16 18:04:51;;;;;;;11.93;2.97;;;;;;;;;;5073545;28;20024;-72
2021/12/16 18:07:18;;;;;;;13.70;3.10;;;;;;;;;;5073532;28;20049;-72
2021/12/16 18:09:46;;;;;;;13.05;2.88;;;;;;;;;;5072027;28;20024;-72
2021/12/16 18:12:16;;;;;;;12.57;2.78;;;;;;;;;;5071836;28;20024;-72
2021/12/16 18:14:50;;;;;;;10.50;3.20;;;;;;;;;;5073332;28;20048;-72
2021/12/16 18:17:19;;;;;;;17.33;3.80;;;;;;;;;;5073333;28;20073;-73
2021/12/16 18:19:56;;;;;;;11.68;3.13;;;;;;;;;;5071329;28;20024;-72
2021/12/16 18:22:25;;;;;;;15.48;3.30;;;;;;;;;;5073332;28;20476;-72
2021/12/16 18:24:57;;;;;;;11.88;3.00;;;;;;;;;;5071863;28;20115;-72
2021/12/16 18:27:27;;;;;;;13.75;3.53;;;;;;;;;;5071749;28;20025;-72
2021/12/16 18:29:54;;;;;;;;;;;;;;;;;;5072209;28;20154;-72
2021/12/16 18:32:28;;;;;;;14.45;3.38;;;;;;;;;;5071633;28;20335;-72
2021/12/16 18:34:56;;;;;;;13.68;3.13;;;;;;;;;;5071536;28;20556;-73
2021/12/16 18:37:23;;;;;;;13.73;3.42;;;;;;;;;;5072794;28;20027;-72
2021/12/16 18:39:51;;;;;;;12.63;2.95;;;;;;;;;;5071261;28;20374;-72
2021/12/16 18:42:21;;;;;;;17.35;3.92;;;;;;;;;;5072736;28;20020;-72